createdAt,value
2023-03-31T00:04:59.968Z,80.84
2023-03-31T00:10:16.421Z,81.34
2023-03-31T00:15:19.514Z,81.36
2023-03-31T00:20:22.796Z,81.97
2023-03-31T00:25:24.476Z,81.63
2023-03-31T00:30:26.154Z,81.94
2023-03-31T00:35:27.907Z,82.59
2023-03-31T00:40:29.555Z,82.28
2023-03-31T00:45:31.646Z,81.96
2023-03-31T00:50:37.563Z,82.76
2023-03-31T00:55:54.792Z,82.59
2023-03-31T01:00:58.188Z,82.06
2023-03-31T01:06:06.546Z,82.54
2023-03-31T01:11:11.971Z,81.91
2023-03-31T01:16:13.641Z,81.12
2023-03-31T01:21:47.272Z,81.53
2023-03-31T01:27:26.526Z,81.27
2023-03-31T01:32:55.976Z,81.95
2023-03-31T01:38:12.694Z,81.78
2023-03-31T01:43:33.793Z,81.55
2023-03-31T01:48:55.198Z,81.60
2023-03-31T01:54:18.752Z,83.20
2023-03-31T01:59:27.638Z,82.44
2023-03-31T02:04:35.025Z,83.74
2023-03-31T02:09:42.434Z,83.13
2023-03-31T02:14:47.715Z,83.44
2023-03-31T02:19:53.505Z,84.73
2023-03-31T02:24:59.174Z,85.38
2023-03-31T02:30:01.859Z,85.94
2023-03-31T02:35:06.217Z,86.61
2023-03-31T02:40:15.624Z,87.37
2023-03-31T02:45:39.298Z,88.92
2023-03-31T02:50:59.516Z,89.21
2023-03-31T02:56:38.406Z,89.53
2023-03-31T03:02:01.988Z,90.35
2023-03-31T03:07:19.059Z,91.42
2023-03-31T03:12:32.909Z,91.02
2023-03-31T03:17:45.491Z,90.75
2023-03-31T03:22:47.306Z,89.50
2023-03-31T03:27:48.991Z,90.66
2023-03-31T03:32:50.836Z,91.55
2023-03-31T03:37:52.632Z,91.08
2023-03-31T03:42:54.279Z,91.91
2023-03-31T03:47:56.117Z,89.54
2023-03-31T03:52:57.836Z,87.73
2023-03-31T03:57:59.741Z,89.47
2023-03-31T04:03:01.824Z,87.64
2023-03-31T04:08:04.516Z,88.24
2023-03-31T04:13:06.791Z,87.25
2023-03-31T04:18:11.332Z,86.23
2023-03-31T04:23:14.896Z,86.70
2023-03-31T04:28:16.890Z,87.96
2023-03-31T04:33:19.115Z,87.33
2023-03-31T04:38:23.732Z,87.73
2023-03-31T04:43:25.633Z,89.17
2023-03-31T04:48:27.230Z,89.98
2023-03-31T04:53:29.001Z,87.59
2023-03-31T04:58:30.637Z,88.15
2023-03-31T05:03:32.677Z,86.74
2023-03-31T05:08:34.539Z,87.82
2023-03-31T05:13:36.420Z,86.26
2023-03-31T05:18:38.198Z,88.53
2023-03-31T05:23:39.957Z,87.69
2023-03-31T05:28:41.826Z,84.20
2023-03-31T05:33:43.719Z,85.46
2023-03-31T05:38:46.147Z,85.76
2023-03-31T05:43:47.984Z,84.83
2023-03-31T05:48:49.852Z,85.07
2023-03-31T05:53:51.703Z,83.96
2023-03-31T05:58:53.826Z,84.76
2023-03-31T06:03:56.384Z,85.18
2023-03-31T06:08:58.227Z,83.97
2023-03-31T06:14:00.283Z,84.01
2023-03-31T06:19:02.220Z,83.37
2023-03-31T06:24:04.050Z,83.99
2023-03-31T06:29:06.126Z,82.68
2023-03-31T06:34:07.912Z,82.82
2023-03-31T06:39:09.784Z,83.86
2023-03-31T06:44:11.593Z,85.25
2023-03-31T06:49:13.385Z,84.28
2023-03-31T06:54:15.226Z,78.65
2023-03-31T06:59:17.140Z,76.86
2023-03-31T07:04:18.889Z,73.42
2023-03-31T07:09:23.361Z,74.01
2023-03-31T07:14:25.075Z,75.33
2023-03-31T07:19:26.759Z,75.63
2023-03-31T07:24:30.487Z,74.43
2023-03-31T07:29:32.205Z,73.52
2023-03-31T07:34:36.215Z,70.79
2023-03-31T07:39:39.136Z,71.81
2023-03-31T07:44:40.889Z,67.32
2023-03-31T07:49:42.565Z,65.21
2023-03-31T07:54:44.211Z,65.70
2023-03-31T07:59:47.090Z,65.22
2023-03-31T08:04:48.733Z,63.92
2023-03-31T08:09:50.542Z,63.00
2023-03-31T08:14:52.443Z,64.58
2023-03-31T08:19:54.691Z,64.29
2023-03-31T08:24:56.368Z,64.82
2023-03-31T08:29:58.077Z,66.18
2023-03-31T08:35:00.551Z,65.24
2023-03-31T08:40:05.264Z,64.65
2023-03-31T08:45:27.963Z,65.88
2023-03-31T08:50:34.698Z,67.14
2023-03-31T08:55:49.992Z,66.69
2023-03-31T09:00:55.534Z,68.83
2023-03-31T09:06:07.937Z,70.56
2023-03-31T09:11:09.664Z,75.69
2023-03-31T09:16:24.458Z,74.42
2023-03-31T09:21:32.029Z,73.24
2023-03-31T09:26:39.250Z,72.20
2023-03-31T09:31:43.893Z,72.25
2023-03-31T09:36:45.807Z,72.76
2023-03-31T09:41:50.822Z,72.22
2023-03-31T09:46:53.857Z,72.41
2023-03-31T09:52:03.528Z,72.02
2023-03-31T09:57:23.332Z,73.40
2023-03-31T10:02:39.020Z,73.05
2023-03-31T10:07:42.298Z,71.93
2023-03-31T10:12:52.059Z,72.23
2023-03-31T10:17:55.356Z,68.33
2023-03-31T10:23:03.539Z,68.97
2023-03-31T10:28:15.564Z,69.84
2023-03-31T10:33:23.791Z,70.06
2023-03-31T10:38:40.140Z,71.79
2023-03-31T10:43:47.488Z,69.63
2023-03-31T10:48:51.351Z,70.84
2023-03-31T10:53:55.829Z,73.09
2023-03-31T10:59:21.712Z,73.44
2023-03-31T11:04:43.277Z,75.42
2023-03-31T11:10:20.372Z,75.33
2023-03-31T11:15:44.314Z,76.70
2023-03-31T11:21:05.858Z,77.74
2023-03-31T11:26:17.233Z,80.64
2023-03-31T11:31:24.837Z,83.07
2023-03-31T11:36:45.071Z,87.13
2023-03-31T11:41:58.235Z,88.14
2023-03-31T11:47:07.022Z,91.37
2023-03-31T11:52:14.765Z,92.40
2023-03-31T11:57:22.210Z,95.24
2023-03-31T12:02:39.928Z,94.96
2023-03-31T12:07:49.086Z,94.86
2023-03-31T12:13:23.041Z,98.88
2023-03-31T12:18:28.332Z,98.10
2023-03-31T12:23:36.006Z,100.00
2023-03-31T12:28:40.649Z,96.86
2023-03-31T12:33:46.616Z,100.00
2023-03-31T12:39:08.831Z,100.00
2023-03-31T12:44:29.238Z,100.00
2023-03-31T12:49:50.258Z,100.00
2023-03-31T12:55:00.575Z,100.00
2023-03-31T13:00:12.602Z,100.00
2023-03-31T13:05:36.213Z,100.00
2023-03-31T13:10:58.662Z,100.00
2023-03-31T13:16:02.024Z,100.00
2023-03-31T13:21:05.761Z,100.00
2023-03-31T13:26:33.383Z,100.00
2023-03-31T13:32:00.687Z,100.00
2023-03-31T13:37:30.888Z,100.00
2023-03-31T13:42:51.037Z,100.00
2023-03-31T13:48:21.634Z,99.10
2023-03-31T13:53:39.467Z,97.81
2023-03-31T13:58:59.280Z,92.73
2023-03-31T14:04:16.079Z,93.64
2023-03-31T14:09:24.038Z,83.56
2023-03-31T14:14:26.634Z,87.06
2023-03-31T14:19:54.983Z,85.68
2023-03-31T14:25:02.641Z,82.89
2023-03-31T14:30:13.576Z,83.18
2023-03-31T14:35:42.934Z,82.23
2023-03-31T14:40:57.821Z,81.28
2023-03-31T14:46:23.193Z,78.68
2023-03-31T14:51:28.721Z,75.39
2023-03-31T14:56:41.142Z,77.10
2023-03-31T15:01:46.383Z,75.31
2023-03-31T15:06:49.865Z,76.95
2023-03-31T15:11:59.268Z,76.36
2023-03-31T15:17:01.312Z,73.00
2023-03-31T15:22:16.403Z,76.26
2023-03-31T15:27:36.670Z,80.18
2023-03-31T15:32:40.915Z,77.06
2023-03-31T15:37:44.136Z,78.57
2023-03-31T15:43:01.474Z,79.58
2023-03-31T15:48:28.719Z,80.04
2023-03-31T15:53:39.132Z,81.58
2023-03-31T15:58:54.462Z,82.52
2023-03-31T16:03:56.871Z,79.99
2023-03-31T16:09:09.017Z,76.07
2023-03-31T16:14:20.290Z,70.38
2023-03-31T16:19:25.446Z,79.44
2023-03-31T16:24:32.919Z,80.86
2023-03-31T16:29:35.901Z,82.52
2023-03-31T16:34:56.794Z,84.15
2023-03-31T16:39:58.490Z,82.75
2023-03-31T16:45:13.909Z,84.21
2023-03-31T16:50:16.592Z,86.32
2023-03-31T16:55:18.294Z,87.95
2023-03-31T17:00:20.549Z,88.56
2023-03-31T17:05:22.434Z,90.02
2023-03-31T17:10:24.364Z,90.53
2023-03-31T17:15:26.650Z,91.64
2023-03-31T17:20:28.372Z,91.79
2023-03-31T17:25:30.786Z,93.40
2023-03-31T17:30:35.633Z,93.70
2023-03-31T17:35:38.159Z,93.84
2023-03-31T17:40:40.940Z,94.17
2023-03-31T17:45:42.700Z,94.70
2023-03-31T17:50:45.051Z,94.94
2023-03-31T17:55:46.876Z,94.37
2023-03-31T18:00:49.191Z,92.63
2023-03-31T18:05:51.191Z,93.79
2023-03-31T18:10:52.974Z,95.20
2023-03-31T18:15:55.054Z,96.29
2023-03-31T18:20:57.297Z,97.11
2023-03-31T18:25:59.146Z,95.65
2023-03-31T18:31:05.581Z,95.37
2023-03-31T18:36:13.446Z,93.31
2023-03-31T18:41:17.755Z,92.17
2023-03-31T18:46:19.895Z,93.79
2023-03-31T18:51:23.865Z,90.17
2023-03-31T18:56:25.709Z,89.06
2023-03-31T19:01:28.637Z,89.25
2023-03-31T19:06:30.294Z,86.92
2023-03-31T19:11:32.316Z,83.77
2023-03-31T19:16:41.497Z,83.72
2023-03-31T19:21:44.047Z,80.83
2023-03-31T19:26:46.482Z,79.78
2023-03-31T19:31:48.620Z,79.42
2023-03-31T19:36:50.950Z,80.97
2023-03-31T19:41:52.686Z,79.21
2023-03-31T19:46:54.407Z,79.34
2023-03-31T19:51:56.547Z,79.96
2023-03-31T19:56:58.228Z,80.57
2023-03-31T20:02:02.439Z,81.17
2023-03-31T20:07:04.337Z,82.67
2023-03-31T20:12:06.220Z,81.72
2023-03-31T20:17:08.148Z,83.56
2023-03-31T20:22:09.872Z,83.40
2023-03-31T20:27:11.636Z,85.37
2023-03-31T20:32:17.162Z,87.34
2023-03-31T20:37:19.044Z,89.59
2023-03-31T20:42:21.173Z,92.45
2023-03-31T20:47:22.829Z,94.82
2023-03-31T20:52:24.477Z,93.59
2023-03-31T20:57:26.506Z,93.11
2023-03-31T21:02:28.353Z,92.65
2023-03-31T21:07:31.137Z,93.86
2023-03-31T21:12:33.731Z,94.11
2023-03-31T21:17:35.451Z,93.25
2023-03-31T21:22:37.174Z,94.63
2023-03-31T21:27:38.855Z,93.55
2023-03-31T21:32:40.745Z,94.08
2023-03-31T21:37:42.432Z,94.04
2023-03-31T21:42:44.316Z,93.40
2023-03-31T21:47:45.994Z,94.16
2023-03-31T21:52:48.044Z,93.69
2023-03-31T21:57:49.795Z,91.68
2023-03-31T22:02:52.465Z,91.84
2023-03-31T22:07:57.240Z,91.35
2023-03-31T22:12:58.890Z,90.83
2023-03-31T22:18:01.712Z,90.59
2023-03-31T22:23:03.984Z,90.07
2023-03-31T22:28:07.352Z,90.06
2023-03-31T22:33:09.252Z,90.86
2023-03-31T22:38:13.999Z,89.42
2023-03-31T22:43:15.857Z,89.86
2023-03-31T22:48:18.285Z,89.98
2023-03-31T22:53:20.042Z,90.57
2023-03-31T22:58:22.676Z,90.82
2023-03-31T23:03:24.983Z,90.97
2023-03-31T23:08:27.204Z,92.35
2023-03-31T23:13:30.084Z,92.11
2023-03-31T23:18:31.834Z,92.40
2023-03-31T23:23:33.934Z,91.85
2023-03-31T23:28:37.143Z,92.96
2023-03-31T23:33:38.890Z,93.44
2023-03-31T23:38:40.827Z,94.22
2023-03-31T23:43:43.501Z,97.29
2023-03-31T23:48:45.568Z,99.06
2023-03-31T23:53:47.478Z,99.49
2023-03-31T23:58:49.154Z,99.36
